createdAt,value
2019-03-23T00:01:54.324Z,213.85
2019-03-23T00:04:02.075Z,230.12
2019-03-23T00:06:09.761Z,232.32
2019-03-23T00:08:17.633Z,251.00
2019-03-23T00:10:25.346Z,222.73
2019-03-23T00:12:33.040Z,247.75
2019-03-23T00:14:40.875Z,209.70
2019-03-23T00:16:48.455Z,214.45
2019-03-23T00:18:56.286Z,215.82
2019-03-23T00:21:04.041Z,200.93
2019-03-23T00:23:11.631Z,203.80
2019-03-23T00:25:19.317Z,189.60
2019-03-23T00:27:30.159Z,199.50
2019-03-23T00:29:37.921Z,201.98
2019-03-23T00:31:45.661Z,247.95
2019-03-23T00:33:53.567Z,211.00
2019-03-23T00:36:01.405Z,202.57
2019-03-23T00:38:09.433Z,197.28
2019-03-23T00:40:17.218Z,199.10
2019-03-23T00:42:24.986Z,186.60
2019-03-23T00:44:32.845Z,179.50
2019-03-23T00:46:40.635Z,261.55
2019-03-23T00:48:48.296Z,228.10
2019-03-23T00:50:56.167Z,189.03
2019-03-23T00:53:04.107Z,198.80
2019-03-23T00:55:11.869Z,204.93
2019-03-23T00:57:19.607Z,227.68
2019-03-23T00:59:27.468Z,212.05
2019-03-23T01:01:35.118Z,207.27
2019-03-23T01:03:42.941Z,173.82
2019-03-23T01:05:50.716Z,213.92
2019-03-23T01:07:58.382Z,205.27
2019-03-23T01:10:11.491Z,179.55
2019-03-23T01:12:19.101Z,205.25
2019-03-23T01:14:26.865Z,171.57
2019-03-23T01:16:34.647Z,160.48
2019-03-23T01:18:42.510Z,182.00
2019-03-23T01:20:50.196Z,171.85
2019-03-23T01:22:58.192Z,141.82
2019-03-23T01:25:09.009Z,145.92
2019-03-23T01:27:16.670Z,169.40
2019-03-23T01:29:25.201Z,194.40
2019-03-23T01:31:33.117Z,186.25
2019-03-23T01:33:40.944Z,180.10
2019-03-23T01:35:48.635Z,167.53
2019-03-23T01:37:56.556Z,145.53
2019-03-23T01:40:05.784Z,150.15
2019-03-23T01:42:14.373Z,139.32
2019-03-23T01:44:22.257Z,147.32
2019-03-23T01:46:29.921Z,175.12
2019-03-23T01:48:38.863Z,157.05
2019-03-23T01:50:46.630Z,176.05
2019-03-23T01:52:54.258Z,160.10
2019-03-23T01:55:01.849Z,155.50
2019-03-23T01:57:09.635Z,149.15
2019-03-23T01:59:17.231Z,154.03
2019-03-23T02:01:24.955Z,144.45
2019-03-23T02:03:32.927Z,145.68
2019-03-23T02:05:40.705Z,139.68
2019-03-23T02:07:48.361Z,123.35
2019-03-23T02:09:56.318Z,120.30
2019-03-23T02:12:04.012Z,127.58
2019-03-23T02:14:11.779Z,140.77
2019-03-23T02:16:19.667Z,111.35
2019-03-23T02:18:28.672Z,127.95
2019-03-23T02:20:36.386Z,128.02
2019-03-23T02:22:44.244Z,124.50
2019-03-23T02:24:51.999Z,126.27
2019-03-23T02:26:59.689Z,125.05
2019-03-23T02:29:07.300Z,132.60
2019-03-23T02:31:14.888Z,141.45
2019-03-23T02:33:22.566Z,141.75
2019-03-23T02:35:30.350Z,141.62
2019-03-23T02:37:38.183Z,130.07
2019-03-23T02:39:46.851Z,112.80
2019-03-23T02:41:54.471Z,114.67
2019-03-23T02:44:02.063Z,123.33
2019-03-23T02:46:10.829Z,119.97
2019-03-23T02:48:18.528Z,97.60
2019-03-23T02:50:26.273Z,104.80
2019-03-23T02:52:33.927Z,114.80
2019-03-23T02:54:41.680Z,108.40
2019-03-23T02:56:49.371Z,129.60
2019-03-23T02:58:56.970Z,125.47
2019-03-23T03:01:04.771Z,118.40
2019-03-23T03:03:12.348Z,105.43
2019-03-23T03:05:20.034Z,109.32
2019-03-23T03:07:40.639Z,101.70
2019-03-23T03:09:37.178Z,106.17
2019-03-23T03:11:44.819Z,104.30
2019-03-23T03:13:52.555Z,103.17
2019-03-23T03:16:00.327Z,114.67
2019-03-23T03:18:08.821Z,119.70
2019-03-23T03:20:16.570Z,115.57
2019-03-23T03:22:24.266Z,103.22
2019-03-23T03:24:31.951Z,103.72
2019-03-23T03:26:40.857Z,101.30
2019-03-23T03:28:48.623Z,101.87
2019-03-23T03:30:56.461Z,102.05
2019-03-23T03:33:05.136Z,108.72
2019-03-23T03:35:13.055Z,114.37
2019-03-23T03:37:20.741Z,109.63
2019-03-23T03:39:28.471Z,110.03
2019-03-23T03:41:36.489Z,100.40
2019-03-23T03:43:44.243Z,110.48
2019-03-23T03:45:53.175Z,98.17
2019-03-23T03:48:00.858Z,110.45
2019-03-23T03:50:10.059Z,104.35
2019-03-23T03:52:17.784Z,111.65
2019-03-23T03:54:25.482Z,101.80
2019-03-23T03:56:34.426Z,98.07
2019-03-23T03:58:42.158Z,97.37
2019-03-23T04:00:49.854Z,98.83
2019-03-23T04:02:57.612Z,98.58
2019-03-23T04:05:06.329Z,79.60
2019-03-23T04:07:13.928Z,87.53
2019-03-23T04:09:21.759Z,84.32
2019-03-23T04:11:29.569Z,94.10
2019-03-23T04:13:38.426Z,87.55
2019-03-23T04:15:46.105Z,87.82
2019-03-23T04:17:53.994Z,81.28
2019-03-23T04:20:01.930Z,97.00
2019-03-23T04:22:09.586Z,97.25
2019-03-23T04:24:17.545Z,89.32
2019-03-23T04:26:25.241Z,91.85
2019-03-23T04:28:32.941Z,95.47
2019-03-23T04:30:40.791Z,93.67
2019-03-23T04:32:48.401Z,96.50
2019-03-23T04:34:57.933Z,93.80
2019-03-23T04:37:05.725Z,99.37
2019-03-23T04:39:13.551Z,105.15
2019-03-23T04:41:21.419Z,92.70
2019-03-23T04:43:29.202Z,97.87
2019-03-23T04:45:36.893Z,96.95
2019-03-23T04:47:44.750Z,96.15
2019-03-23T04:49:52.462Z,88.60
2019-03-23T04:52:00.228Z,107.13
2019-03-23T04:54:08.004Z,99.67
2019-03-23T04:56:15.927Z,105.17
2019-03-23T04:58:23.537Z,104.90
2019-03-23T05:00:31.331Z,208.23
2019-03-23T05:02:39.134Z,116.10
2019-03-23T05:04:47.432Z,106.67
2019-03-23T05:06:55.130Z,102.07
2019-03-23T05:09:03.219Z,100.13
2019-03-23T05:11:10.813Z,99.40
2019-03-23T05:13:19.840Z,87.33
2019-03-23T05:15:27.564Z,91.17
2019-03-23T05:17:35.786Z,94.75
2019-03-23T05:19:43.542Z,93.35
2019-03-23T05:21:51.227Z,100.45
2019-03-23T05:23:58.915Z,95.95
2019-03-23T05:26:06.671Z,92.53
2019-03-23T05:28:14.400Z,94.65
2019-03-23T05:30:22.091Z,95.65
2019-03-23T05:32:29.751Z,94.03
2019-03-23T05:34:37.475Z,97.10
2019-03-23T05:36:45.873Z,105.35
2019-03-23T05:38:53.569Z,103.80
2019-03-23T05:41:01.194Z,114.28
2019-03-23T05:43:08.918Z,109.80
2019-03-23T05:45:16.609Z,108.12
2019-03-23T05:47:24.434Z,103.85
2019-03-23T05:49:32.123Z,104.35
2019-03-23T05:51:39.845Z,80.55
2019-03-23T05:53:47.587Z,101.15
2019-03-23T05:55:55.271Z,82.20
2019-03-23T05:58:02.962Z,62.73
2019-03-23T06:00:12.869Z,67.45
2019-03-23T06:02:20.551Z,52.48
2019-03-23T06:04:28.367Z,50.90
2019-03-23T06:06:36.196Z,47.27
2019-03-23T06:08:54.268Z,45.95
2019-03-23T06:10:53.309Z,45.45
2019-03-23T06:13:01.011Z,41.10
2019-03-23T06:15:08.945Z,40.80
2019-03-23T06:17:16.640Z,42.33
2019-03-23T06:19:24.405Z,40.90
2019-03-23T06:21:32.080Z,41.65
2019-03-23T06:23:39.689Z,38.30
2019-03-23T06:25:47.335Z,36.45
2019-03-23T06:27:56.287Z,38.35
2019-03-23T06:30:04.818Z,35.25
2019-03-23T06:32:12.600Z,36.10
2019-03-23T06:34:20.166Z,40.43
2019-03-23T06:36:27.842Z,38.20
2019-03-23T06:38:36.138Z,39.55
2019-03-23T06:40:43.881Z,41.13
2019-03-23T06:42:59.413Z,33.88
2019-03-23T06:45:00.896Z,35.30
2019-03-23T06:47:08.572Z,28.38
2019-03-23T06:49:16.249Z,28.27
2019-03-23T06:51:24.033Z,28.90
2019-03-23T06:53:31.606Z,30.80
2019-03-23T06:55:39.367Z,28.20
2019-03-23T06:57:47.059Z,27.77
2019-03-23T06:59:54.741Z,30.15
2019-03-23T07:02:02.441Z,30.55
2019-03-23T07:04:10.166Z,28.85
2019-03-23T07:06:19.135Z,28.00
2019-03-23T07:08:31.897Z,27.67
2019-03-23T07:10:36.298Z,28.27
2019-03-23T07:12:44.037Z,29.27
2019-03-23T07:14:51.708Z,27.13
2019-03-23T07:16:59.462Z,25.88
2019-03-23T07:19:07.139Z,27.35
2019-03-23T07:21:14.943Z,25.55
2019-03-23T07:23:22.830Z,25.45
2019-03-23T07:25:30.458Z,24.55
2019-03-23T07:27:38.194Z,26.93
2019-03-23T07:29:45.903Z,19.55
2019-03-23T07:31:53.627Z,17.23
2019-03-23T07:34:01.303Z,15.65
2019-03-23T07:36:09.019Z,15.55
2019-03-23T07:38:16.849Z,26.97
2019-03-23T07:40:25.478Z,20.82
2019-03-23T07:42:33.181Z,18.07
2019-03-23T07:44:40.859Z,27.90
2019-03-23T07:46:48.433Z,33.38
2019-03-23T07:48:56.129Z,20.97
2019-03-23T07:51:03.807Z,12.55
2019-03-23T07:53:11.646Z,14.83
2019-03-23T07:55:20.653Z,10.63
2019-03-23T07:57:28.456Z,11.00
2019-03-23T07:59:36.208Z,11.85
2019-03-23T08:01:43.913Z,10.43
2019-03-23T08:03:52.391Z,9.78
2019-03-23T08:06:00.051Z,8.83
2019-03-23T08:08:07.820Z,8.88
2019-03-23T08:10:30.695Z,10.98
2019-03-23T08:12:38.266Z,9.48
2019-03-23T08:14:45.998Z,8.75
2019-03-23T08:16:53.571Z,8.53
2019-03-23T08:19:01.311Z,7.67
2019-03-23T08:21:08.911Z,9.45
2019-03-23T08:23:16.646Z,15.28
2019-03-23T08:25:24.424Z,22.98
2019-03-23T08:27:32.120Z,9.25
2019-03-23T08:29:39.801Z,14.95
2019-03-23T08:31:47.559Z,11.50
2019-03-23T08:33:55.363Z,8.55
2019-03-23T08:36:03.035Z,8.08
2019-03-23T08:38:10.715Z,8.50
2019-03-23T08:40:18.493Z,9.35
2019-03-23T08:42:27.179Z,11.70
2019-03-23T08:44:34.828Z,9.48
2019-03-23T08:46:42.611Z,9.05
2019-03-23T08:48:51.338Z,10.08
2019-03-23T08:50:59.268Z,9.93
2019-03-23T08:53:08.038Z,8.40
2019-03-23T08:55:15.721Z,18.15
2019-03-23T08:57:24.341Z,9.65
2019-03-23T08:59:32.079Z,16.75
2019-03-23T09:01:39.732Z,13.13
2019-03-23T09:03:52.552Z,13.30
2019-03-23T09:05:56.822Z,9.50
2019-03-23T09:08:04.735Z,10.05
2019-03-23T09:10:12.589Z,8.95
2019-03-23T09:12:20.442Z,12.23
2019-03-23T09:14:28.205Z,13.55
2019-03-23T09:16:35.894Z,10.13
2019-03-23T09:18:44.806Z,10.58
2019-03-23T09:20:52.577Z,8.13
2019-03-23T09:23:00.214Z,10.60
2019-03-23T09:25:09.654Z,10.82
2019-03-23T09:27:17.380Z,9.20
2019-03-23T09:29:25.219Z,14.95
2019-03-23T09:31:32.931Z,13.40
2019-03-23T09:33:40.525Z,19.10
2019-03-23T09:35:48.291Z,12.10
2019-03-23T09:37:55.911Z,8.73
2019-03-23T09:40:10.858Z,12.43
2019-03-23T09:42:13.166Z,10.18
2019-03-23T09:44:21.881Z,8.68
2019-03-23T09:46:29.535Z,12.63
2019-03-23T09:48:37.201Z,21.60
2019-03-23T09:50:46.124Z,12.80
2019-03-23T09:52:53.928Z,13.25
2019-03-23T09:55:01.623Z,10.18
2019-03-23T09:57:09.410Z,16.35
2019-03-23T09:59:18.077Z,10.13
2019-03-23T10:01:25.774Z,11.70
2019-03-23T10:03:33.467Z,13.08
2019-03-23T10:05:42.345Z,12.18
2019-03-23T10:07:50.040Z,11.55
2019-03-23T10:09:57.907Z,13.80
2019-03-23T10:12:05.680Z,14.23
2019-03-23T10:14:13.401Z,11.70
2019-03-23T10:16:21.192Z,11.35
2019-03-23T10:18:29.124Z,14.47
2019-03-23T10:20:36.817Z,10.95
2019-03-23T10:22:44.607Z,10.18
2019-03-23T10:24:53.532Z,13.98
2019-03-23T10:27:01.413Z,11.30
2019-03-23T10:29:09.407Z,16.50
2019-03-23T10:31:17.076Z,11.97
2019-03-23T10:33:24.790Z,14.07
2019-03-23T10:35:32.542Z,9.38
2019-03-23T10:37:40.260Z,10.28
2019-03-23T10:39:47.938Z,8.65
2019-03-23T10:41:55.580Z,11.78
2019-03-23T10:44:03.266Z,9.03
2019-03-23T10:46:11.882Z,9.20
2019-03-23T10:48:19.766Z,10.30
2019-03-23T10:50:27.608Z,9.55
2019-03-23T10:52:36.439Z,9.28
2019-03-23T10:54:44.141Z,8.03
2019-03-23T10:56:51.908Z,8.68
2019-03-23T10:58:59.663Z,8.00
2019-03-23T11:01:07.390Z,7.62
2019-03-23T11:03:15.214Z,8.75
2019-03-23T11:05:22.971Z,8.48
2019-03-23T11:07:30.680Z,8.25
2019-03-23T11:09:38.433Z,7.53
2019-03-23T11:11:46.089Z,7.67
2019-03-23T11:13:53.806Z,7.83
2019-03-23T11:16:01.487Z,8.08
2019-03-23T11:18:09.280Z,8.63
2019-03-23T11:20:17.135Z,7.97
2019-03-23T11:22:24.819Z,7.92
2019-03-23T11:24:32.570Z,7.62
2019-03-23T11:26:40.298Z,8.63
2019-03-23T11:28:48.182Z,8.35
2019-03-23T11:30:55.938Z,9.95
2019-03-23T11:33:03.721Z,8.58
2019-03-23T11:35:11.915Z,9.68
2019-03-23T11:37:19.757Z,10.65
2019-03-23T11:39:28.906Z,10.55
2019-03-23T11:41:36.488Z,9.28
2019-03-23T11:43:45.496Z,10.13
2019-03-23T11:45:53.286Z,16.97
2019-03-23T11:48:01.880Z,17.60
2019-03-23T11:50:11.512Z,13.45
2019-03-23T11:52:19.223Z,10.32
2019-03-23T11:54:26.911Z,9.78
2019-03-23T11:56:34.837Z,9.48
2019-03-23T11:58:42.553Z,10.08
2019-03-23T12:00:50.557Z,10.00
2019-03-23T12:02:58.344Z,10.08
2019-03-23T12:05:08.493Z,9.78
2019-03-23T12:07:16.153Z,11.03
2019-03-23T12:09:24.086Z,10.95
2019-03-23T12:11:31.921Z,10.10
2019-03-23T12:13:39.714Z,11.15
2019-03-23T12:15:47.414Z,10.35
2019-03-23T12:17:55.381Z,11.53
2019-03-23T12:20:03.255Z,10.80
2019-03-23T12:22:11.159Z,11.20
2019-03-23T12:24:18.942Z,10.75
2019-03-23T12:26:26.698Z,9.90
2019-03-23T12:28:34.392Z,9.73
2019-03-23T12:30:42.174Z,9.68
2019-03-23T12:32:49.984Z,10.03
2019-03-23T12:34:57.745Z,9.08
2019-03-23T12:37:05.841Z,8.75
2019-03-23T12:39:13.510Z,10.15
2019-03-23T12:41:23.224Z,8.40
2019-03-23T12:43:30.512Z,8.13
2019-03-23T12:45:38.927Z,8.65
2019-03-23T12:47:46.755Z,8.08
2019-03-23T12:49:55.020Z,7.85
2019-03-23T12:52:02.705Z,7.33
2019-03-23T12:54:10.362Z,6.37
2019-03-23T12:56:18.094Z,6.35
2019-03-23T12:58:25.917Z,7.28
2019-03-23T13:00:33.740Z,6.17
2019-03-23T13:02:41.510Z,6.70
2019-03-23T13:04:49.170Z,6.50
2019-03-23T13:06:57.028Z,5.33
2019-03-23T13:09:06.884Z,6.25
2019-03-23T13:11:23.111Z,6.20
2019-03-23T13:13:24.130Z,6.17
2019-03-23T13:15:31.953Z,5.62
2019-03-23T13:17:39.658Z,5.35
2019-03-23T13:19:47.515Z,6.12
2019-03-23T13:21:55.322Z,5.60
2019-03-23T13:24:03.020Z,6.70
2019-03-23T13:26:10.875Z,6.20
2019-03-23T13:28:18.668Z,6.35
2019-03-23T13:30:26.406Z,6.78
2019-03-23T13:32:35.056Z,13.30
2019-03-23T13:34:42.744Z,11.53
2019-03-23T13:36:50.503Z,8.40
2019-03-23T13:38:58.200Z,6.10
2019-03-23T13:41:07.632Z,6.55
2019-03-23T13:43:15.421Z,12.63
2019-03-23T13:45:23.111Z,5.90
2019-03-23T13:47:30.889Z,6.30
2019-03-23T13:49:38.644Z,16.27
2019-03-23T13:51:46.402Z,6.40
2019-03-23T13:53:54.247Z,9.70
2019-03-23T13:56:01.833Z,6.75
2019-03-23T13:58:14.547Z,7.03
2019-03-23T14:00:22.194Z,5.55
2019-03-23T14:02:29.944Z,7.95
2019-03-23T14:04:37.724Z,9.55
2019-03-23T14:06:45.343Z,10.05
2019-03-23T14:08:53.111Z,11.55
2019-03-23T14:11:00.967Z,5.30
2019-03-23T14:13:08.991Z,5.70
2019-03-23T14:15:16.840Z,5.62
2019-03-23T14:17:24.533Z,6.05
2019-03-23T14:19:32.256Z,5.62
2019-03-23T14:21:39.930Z,5.00
2019-03-23T14:23:47.509Z,6.40
2019-03-23T14:25:55.267Z,5.92
2019-03-23T14:28:03.067Z,7.22
2019-03-23T14:30:11.886Z,6.05
2019-03-23T14:32:19.584Z,5.28
2019-03-23T14:34:27.351Z,5.08
2019-03-23T14:36:35.304Z,4.70
2019-03-23T14:38:42.963Z,4.70
2019-03-23T14:40:50.674Z,5.92
2019-03-23T14:42:58.519Z,8.45
2019-03-23T14:45:09.463Z,5.33
2019-03-23T14:47:17.093Z,4.85
2019-03-23T14:49:24.814Z,4.70
2019-03-23T14:51:33.769Z,5.05
2019-03-23T14:53:43.645Z,4.97
2019-03-23T14:55:51.328Z,5.50
2019-03-23T14:57:59.046Z,6.80
2019-03-23T15:00:09.802Z,5.92
2019-03-23T15:02:17.524Z,6.60
2019-03-23T15:04:25.259Z,10.75
2019-03-23T15:06:32.848Z,6.15
2019-03-23T15:08:40.524Z,6.12
2019-03-23T15:10:48.137Z,5.87
2019-03-23T15:12:55.957Z,5.65
2019-03-23T15:15:04.427Z,6.28
2019-03-23T15:17:12.039Z,6.28
2019-03-23T15:19:20.795Z,6.97
2019-03-23T15:21:28.817Z,11.70
2019-03-23T15:23:36.657Z,6.85
2019-03-23T15:25:44.519Z,7.42
2019-03-23T15:27:52.207Z,9.48
2019-03-23T15:30:00.001Z,9.53
2019-03-23T15:32:07.763Z,7.47
2019-03-23T15:34:15.447Z,7.30
2019-03-23T15:36:23.236Z,7.75
2019-03-23T15:38:30.972Z,8.45
2019-03-23T15:40:38.647Z,7.30
2019-03-23T15:42:46.448Z,7.35
2019-03-23T15:44:54.136Z,8.95
2019-03-23T15:47:01.821Z,9.03
2019-03-23T15:49:09.627Z,7.65
2019-03-23T15:51:17.311Z,9.05
2019-03-23T15:53:24.911Z,8.58
2019-03-23T15:55:32.876Z,9.80
2019-03-23T15:57:40.466Z,9.48
2019-03-23T15:59:48.220Z,8.68
2019-03-23T16:01:55.930Z,9.48
2019-03-23T16:04:03.757Z,9.70
2019-03-23T16:06:11.441Z,11.08
2019-03-23T16:08:19.061Z,10.30
2019-03-23T16:10:26.827Z,8.65
2019-03-23T16:12:36.718Z,10.48
2019-03-23T16:14:44.013Z,10.68
2019-03-23T16:16:51.730Z,10.65
2019-03-23T16:18:59.520Z,10.78
2019-03-23T16:21:08.301Z,10.48
2019-03-23T16:23:16.059Z,10.15
2019-03-23T16:25:23.661Z,10.53
2019-03-23T16:27:31.551Z,10.50
2019-03-23T16:29:39.480Z,9.50
2019-03-23T16:31:47.277Z,10.25
2019-03-23T16:33:55.074Z,10.70
2019-03-23T16:36:03.660Z,9.70
2019-03-23T16:38:11.608Z,10.50
2019-03-23T16:40:19.394Z,12.58
2019-03-23T16:42:27.060Z,13.60
2019-03-23T16:44:34.648Z,13.30
2019-03-23T16:46:42.485Z,14.10
2019-03-23T16:48:50.070Z,13.35
2019-03-23T16:50:57.804Z,12.18
2019-03-23T16:53:05.613Z,12.93
2019-03-23T16:55:13.614Z,13.72
2019-03-23T16:57:21.507Z,14.05
2019-03-23T16:59:29.328Z,13.88
2019-03-23T17:01:37.102Z,13.88
2019-03-23T17:03:44.778Z,14.60
2019-03-23T17:05:52.400Z,13.75
2019-03-23T17:08:00.171Z,34.92
2019-03-23T17:10:09.802Z,43.30
2019-03-23T17:12:17.516Z,54.35
2019-03-23T17:14:25.296Z,78.85
2019-03-23T17:16:32.992Z,160.97
2019-03-23T17:18:40.723Z,161.47
2019-03-23T17:20:48.337Z,246.82
2019-03-23T17:22:56.047Z,198.32
2019-03-23T17:25:05.908Z,269.02
2019-03-23T17:27:13.518Z,232.20
2019-03-23T17:29:21.224Z,108.60
2019-03-23T17:31:29.228Z,150.30
2019-03-23T17:33:37.008Z,141.10
2019-03-23T17:35:44.785Z,76.25
2019-03-23T17:37:52.500Z,82.90
2019-03-23T17:40:00.375Z,87.82
2019-03-23T17:42:08.154Z,153.53
2019-03-23T17:44:15.907Z,156.20
2019-03-23T17:46:23.614Z,235.23
2019-03-23T17:48:31.409Z,89.47
2019-03-23T17:50:39.207Z,119.62
2019-03-23T17:52:46.909Z,124.30
2019-03-23T17:54:55.678Z,171.47
2019-03-23T17:57:03.415Z,170.00
2019-03-23T17:59:11.267Z,231.07
2019-03-23T18:01:19.595Z,188.55
2019-03-23T18:03:27.779Z,133.47
2019-03-23T18:05:35.580Z,143.45
2019-03-23T18:07:43.253Z,126.27
2019-03-23T18:09:51.412Z,116.10
2019-03-23T18:11:59.256Z,103.62
2019-03-23T18:14:07.158Z,95.75
2019-03-23T18:16:14.780Z,93.70
2019-03-23T18:18:22.475Z,112.47
2019-03-23T18:20:30.256Z,135.22
2019-03-23T18:22:38.053Z,154.95
2019-03-23T18:24:45.756Z,141.75
2019-03-23T18:26:53.529Z,161.22
2019-03-23T18:29:02.425Z,135.05
2019-03-23T18:31:10.023Z,185.67
2019-03-23T18:33:17.864Z,252.30
2019-03-23T18:35:25.621Z,224.50
2019-03-23T18:37:33.328Z,189.90
2019-03-23T18:39:41.021Z,148.32
2019-03-23T18:41:48.893Z,123.87
2019-03-23T18:43:56.557Z,114.10
2019-03-23T18:46:04.681Z,149.05
2019-03-23T18:48:12.375Z,155.80
2019-03-23T18:50:20.069Z,130.47
2019-03-23T18:52:27.930Z,103.20
2019-03-23T18:54:35.654Z,101.10
2019-03-23T18:56:44.480Z,111.77
2019-03-23T18:58:52.330Z,96.97
2019-03-23T19:01:00.099Z,97.37
2019-03-23T19:03:08.089Z,103.55
2019-03-23T19:05:15.682Z,98.95
2019-03-23T19:07:23.366Z,122.50
2019-03-23T19:09:32.099Z,115.97
2019-03-23T19:11:39.815Z,159.80
2019-03-23T19:13:47.531Z,160.70
2019-03-23T19:15:55.214Z,163.65
2019-03-23T19:18:02.977Z,158.35
2019-03-23T19:20:10.903Z,145.38
2019-03-23T19:22:18.594Z,155.18
2019-03-23T19:24:26.430Z,199.60
2019-03-23T19:26:34.217Z,171.62
2019-03-23T19:28:41.920Z,178.55
2019-03-23T19:30:50.683Z,231.00
2019-03-23T19:32:58.773Z,389.12
2019-03-23T19:35:08.117Z,407.50
2019-03-23T19:37:15.842Z,232.27
2019-03-23T19:39:25.067Z,212.80
2019-03-23T19:41:32.823Z,187.05
2019-03-23T19:43:48.224Z,184.35
2019-03-23T19:45:49.723Z,191.90
2019-03-23T19:47:57.336Z,189.13
2019-03-23T19:50:07.333Z,193.52
2019-03-23T19:52:15.031Z,192.72
2019-03-23T19:54:22.754Z,196.63
2019-03-23T19:56:30.487Z,204.50
2019-03-23T19:58:38.253Z,211.10
2019-03-23T20:00:46.221Z,219.47
2019-03-23T20:02:54.882Z,217.80
2019-03-23T20:05:02.822Z,221.40
2019-03-23T20:07:10.852Z,210.17
2019-03-23T20:09:18.553Z,204.10
2019-03-23T20:11:26.477Z,203.32
2019-03-23T20:13:35.715Z,214.27
2019-03-23T20:15:43.574Z,259.73
2019-03-23T20:17:51.530Z,247.42
2019-03-23T20:19:59.386Z,221.68
2019-03-23T20:22:08.047Z,222.17
2019-03-23T20:24:16.498Z,232.27
2019-03-23T20:26:24.346Z,223.68
2019-03-23T20:28:31.946Z,221.00
2019-03-23T20:30:39.881Z,220.70
2019-03-23T20:32:47.666Z,222.10
2019-03-23T20:34:56.562Z,219.62
2019-03-23T20:37:04.257Z,219.22
2019-03-23T20:39:12.150Z,214.53
2019-03-23T20:41:19.856Z,220.63
2019-03-23T20:43:27.665Z,188.10
2019-03-23T20:45:35.353Z,186.37
2019-03-23T20:47:43.290Z,178.18
2019-03-23T20:49:50.991Z,174.40
2019-03-23T20:51:58.843Z,187.27
2019-03-23T20:54:07.499Z,171.37
2019-03-23T20:56:15.270Z,175.32
2019-03-23T20:58:23.022Z,162.65
2019-03-23T21:00:30.829Z,165.47
2019-03-23T21:02:38.618Z,158.25
2019-03-23T21:04:48.428Z,157.25
2019-03-23T21:06:56.208Z,157.25
2019-03-23T21:09:05.563Z,161.28
2019-03-23T21:11:13.268Z,155.52
2019-03-23T21:13:21.019Z,161.47
2019-03-23T21:15:28.609Z,152.40
2019-03-23T21:17:36.330Z,159.18
2019-03-23T21:19:44.154Z,152.47
2019-03-23T21:21:51.806Z,141.55
2019-03-23T21:23:59.524Z,153.57
2019-03-23T21:26:07.302Z,145.82
2019-03-23T21:28:15.053Z,149.60
2019-03-23T21:30:23.564Z,157.00
2019-03-23T21:32:31.325Z,147.60
2019-03-23T21:34:39.188Z,148.47
2019-03-23T21:36:47.978Z,145.28
2019-03-23T21:38:55.574Z,157.97
2019-03-23T21:41:03.187Z,162.07
2019-03-23T21:43:10.808Z,197.40
2019-03-23T21:45:18.837Z,190.57
2019-03-23T21:47:26.601Z,202.97
2019-03-23T21:49:34.320Z,208.40
2019-03-23T21:51:42.154Z,189.97
2019-03-23T21:53:49.756Z,176.93
2019-03-23T21:55:57.529Z,171.00
2019-03-23T21:58:05.257Z,167.28
2019-03-23T22:00:16.290Z,165.00
2019-03-23T22:02:23.927Z,160.37
2019-03-23T22:04:31.623Z,156.12
2019-03-23T22:06:40.108Z,153.10
2019-03-23T22:08:48.000Z,172.43
2019-03-23T22:10:55.784Z,166.00
2019-03-23T22:13:03.476Z,161.18
2019-03-23T22:15:11.782Z,158.78
2019-03-23T22:17:19.377Z,164.22
2019-03-23T22:19:27.068Z,159.18
2019-03-23T22:21:34.804Z,154.68
2019-03-23T22:23:42.485Z,155.87
2019-03-23T22:25:50.076Z,149.50
2019-03-23T22:27:58.348Z,157.60
2019-03-23T22:30:13.380Z,148.02
2019-03-23T22:32:20.969Z,146.55
2019-03-23T22:34:29.102Z,141.05
2019-03-23T22:36:36.799Z,133.80
2019-03-23T22:38:44.487Z,146.15
2019-03-23T22:40:52.449Z,150.62
2019-03-23T22:43:00.042Z,139.07
2019-03-23T22:45:11.483Z,135.65
2019-03-23T22:47:19.679Z,138.07
2019-03-23T22:49:27.384Z,138.80
2019-03-23T22:51:36.121Z,134.47
2019-03-23T22:53:43.948Z,137.88
2019-03-23T22:55:51.766Z,134.78
2019-03-23T22:57:59.466Z,141.92
2019-03-23T23:00:21.243Z,135.22
2019-03-23T23:02:30.718Z,135.45
2019-03-23T23:04:39.343Z,140.18
2019-03-23T23:06:47.848Z,145.60
2019-03-23T23:08:55.686Z,149.65
2019-03-23T23:11:03.760Z,178.68
2019-03-23T23:13:11.800Z,179.68
2019-03-23T23:15:26.039Z,182.50
2019-03-23T23:17:33.725Z,175.57
2019-03-23T23:19:41.473Z,161.62
2019-03-23T23:21:50.132Z,169.10
2019-03-23T23:23:57.841Z,172.30
2019-03-23T23:26:05.762Z,154.72
2019-03-23T23:28:13.922Z,159.10
2019-03-23T23:30:21.580Z,163.00
2019-03-23T23:32:29.299Z,169.55
2019-03-23T23:34:37.077Z,167.72
2019-03-23T23:36:44.772Z,162.62
2019-03-23T23:38:52.732Z,144.32
2019-03-23T23:41:00.566Z,138.92
2019-03-23T23:43:08.300Z,131.47
2019-03-23T23:45:16.247Z,135.90
2019-03-23T23:47:23.947Z,131.78
2019-03-23T23:49:31.641Z,145.77
2019-03-23T23:51:49.574Z,159.10
2019-03-23T23:53:48.655Z,180.20
2019-03-23T23:55:56.514Z,180.30
2019-03-23T23:58:04.419Z,186.75
